Peterborough, United Kingdom
Current Conditions -  °F | °C
As of 4:50 AM on Saturday 25 Oct 2014 (Local Time) from EGXT Reporting Station
Clear Clear  
Wind Chill: 41°   Ceiling: Unl
Heat Index: 45°   Visibility: 6mi
Dew Point: 43°   Wind: 7mph
Humidity: 93%   Direction: 220°SW
Pressure: 29.97"   Gusts: NA
Location:  52.57°N, 0.24°W
Report Text: EGXT 250350Z AUTO 22006KT 9999 // NCD 07/06 Q1015
Loading
Personal Weather Stations






























Interactive Weather Map New forecast layout! Learn more

10-Day Weather Forecast

Advertisements
Track Severe Weather on mobile